Time;durP1;ratioP1;P1;durP2;ratioP2;P2;SDS_P1;SDS_P2;PMS_P1;PMS_P2;Temp;Humidity;BMP_temperature;BMP_pressure;BME280_temperature;BME280_humidity;BME280_pressure;Samples;Min_cycle;Max_cycle;Signal;HPM_P1;HPM_P2
2022/03/22 00:01:01;;;;;;;;;;;;;;;15.17;38.92;102027.03;4407687;32;20120;-70
2022/03/22 00:03:26;;;;;;;;;;;;;;;15.20;38.91;102021.31;4416445;32;19978;-70
2022/03/22 00:05:52;;;;;;;;;;;;;;;15.14;38.77;102022.25;4412400;32;20366;-70
2022/03/22 00:08:18;;;;;;;;;;;;;;;15.02;39.32;102012.38;4406588;32;20441;-70
2022/03/22 00:10:44;;;;;;;;;;;;;;;14.83;39.81;102020.91;4410708;32;20003;-70
2022/03/22 00:13:10;;;;;;;;;;;;;;;14.83;39.82;102015.25;4412091;32;19997;-70
2022/03/22 00:15:35;;;;;;;;;;;;;;;14.84;39.56;102011.16;4414163;32;20369;-70
2022/03/22 00:18:01;;;;;;;;;;;;;;;14.88;39.62;102014.75;4412001;32;20562;-70
2022/03/22 00:20:27;;;;;;;;;;;;;;;14.79;39.45;102015.31;4413323;32;19972;-70
2022/03/22 00:22:54;;;;;;;;;;;;;;;14.78;39.67;102016.56;4411249;32;20016;-70
2022/03/22 00:25:19;;;;;;;;;;;;;;;14.85;39.46;102024.91;4414322;32;19993;-70
2022/03/22 00:27:50;;;;;;;;;;;;;;;14.95;39.24;102026.72;4412228;32;19960;-70
2022/03/22 00:30:17;;;;;;;;;;;;;;;14.98;39.05;102019.38;4411315;32;19953;-70
2022/03/22 00:32:43;;;;;;;;;;;;;;;15.08;39.00;102021.16;4412044;32;21001;-70
2022/03/22 00:35:08;;;;;;;;;;;;;;;15.03;39.36;102021.72;4416519;32;19977;-70
2022/03/22 00:37:37;;;;;;;;;;;;;;;15.15;39.32;102015.34;4415443;32;19997;-70
2022/03/22 00:40:08;;;;;;;;;;;;;;;15.04;39.28;102021.25;4413596;32;20012;-70
2022/03/22 00:42:34;;;;;;;;;;;;;;;15.21;38.86;102016.41;4412403;32;20615;-70
2022/03/22 00:45:01;;;;;;;;;;;;;;;15.32;38.80;102017.78;4414147;32;20023;-70
2022/03/22 00:47:27;;;;;;;;;;;;;;;15.17;39.04;102012.87;4414184;32;19954;-70
2022/03/22 00:49:53;;;;;;;;;;;;;;;15.13;39.02;102015.78;4413143;32;20388;-70
2022/03/22 00:52:20;;;;;;;;;;;;;;;15.13;38.50;102001.59;4412822;32;19968;-70
2022/03/22 00:54:46;;;;;;;;;;;;;;;15.13;38.76;102012.94;4415265;32;20002;-70
2022/03/22 00:57:12;;;;;;;;;;;;;;;15.10;39.07;102021.53;4411067;32;19960;-70
2022/03/22 01:00:09;;;;;;;;;;;;;;;15.32;38.78;102011.31;4418014;32;19996;-70
2022/03/22 01:02:23;;;;;;;;;;;;;;;15.34;38.86;102011.69;4411299;32;20284;-70
2022/03/22 01:04:49;;;;;;;;;;;;;;;15.35;38.70;102007.59;4416283;32;20206;-70
2022/03/22 01:07:14;;;;;;;;;;;;;;;15.38;38.35;102012.41;4414814;32;20319;-70
2022/03/22 01:09:41;;;;;;;;;;;;;;;15.46;38.28;102013.81;4412156;32;19968;-70
2022/03/22 01:12:08;;;;;;;;;;;;;;;15.60;38.15;102013.50;4415502;32;19966;-70
2022/03/22 01:14:34;;;;;;;;;;;;;;;15.53;38.42;102016.50;4414477;32;20029;-70
2022/03/22 01:16:59;;;;;;;;;;;;;;;15.61;38.42;102013.06;4412670;32;19950;-70
2022/03/22 01:19:25;;;;;;;;;;;;;;;15.65;38.31;102012.97;4413956;32;19949;-70
2022/03/22 01:21:51;;;;;;;;;;;;;;;15.66;38.34;102011.72;4413977;32;20670;-70
2022/03/22 01:24:17;;;;;;;;;;;;;;;15.68;38.09;102018.53;4415702;32;19990;-70
2022/03/22 01:26:43;;;;;;;;;;;;;;;15.59;37.91;102018.38;4412070;32;19985;-70
2022/03/22 01:29:11;;;;;;;;;;;;;;;15.79;38.18;102019.09;4412025;32;20000;-70
2022/03/22 01:31:37;;;;;;;;;;;;;;;15.79;38.27;102012.59;4414939;32;20021;-70
2022/03/22 01:34:03;;;;;;;;;;;;;;;15.83;38.40;102007.62;4414815;32;20008;-70
2022/03/22 01:36:30;;;;;;;;;;;;;;;15.86;38.55;102009.56;4412963;32;20162;-70
2022/03/22 01:38:56;;;;;;;;;;;;;;;15.90;38.57;102007.47;4415869;32;20298;-70
2022/03/22 01:41:22;;;;;;;;;;;;;;;15.84;38.05;102006.41;4414854;32;19953;-70
2022/03/22 01:43:47;;;;;;;;;;;;;;;15.92;37.92;102004.97;4412731;32;19945;-70
2022/03/22 01:46:13;;;;;;;;;;;;;;;16.03;37.89;102005.50;4414616;32;20016;-70
2022/03/22 01:48:39;;;;;;;;;;;;;;;15.90;37.77;102007.47;4414364;32;20382;-70
2022/03/22 01:51:05;;;;;;;;;;;;;;;16.02;37.83;101999.00;4415793;32;19954;-70
2022/03/22 01:53:32;;;;;;;;;;;;;;;16.18;37.57;102006.72;4414752;32;19989;-70
2022/03/22 01:55:58;;;;;;;;;;;;;;;16.05;37.77;102000.19;4415750;32;19984;-70
2022/03/22 01:58:24;;;;;;;;;;;;;;;16.05;37.70;102002.22;4415934;32;19965;-70
2022/03/22 02:05:51;;;;;;;;;;;;;;;16.16;37.67;102003.50;4413580;32;19988;-70
2022/03/22 02:06:23;;;;;;;;;;;;;;;16.03;38.35;102002.66;4407026;32;19957;-70
2022/03/22 02:08:51;;;;;;;;;;;;;;;16.14;37.88;101994.62;4417892;32;19980;-70
2022/03/22 02:11:17;;;;;;;;;;;;;;;16.20;38.08;101994.91;4415254;32;19958;-70
2022/03/22 02:13:42;;;;;;;;;;;;;;;16.27;38.14;101997.53;4412292;32;20385;-70
2022/03/22 02:16:09;;;;;;;;;;;;;;;16.24;38.05;101993.56;4415181;32;20005;-70
2022/03/22 02:18:35;;;;;;;;;;;;;;;16.26;38.00;102001.66;4412684;32;19992;-70
2022/03/22 02:21:02;;;;;;;;;;;;;;;16.26;37.86;101993.13;4413298;32;19964;-70
2022/03/22 02:23:48;;;;;;;;;;;;;;;16.34;37.85;101995.31;4414314;32;20001;-70
2022/03/22 02:26:14;;;;;;;;;;;;;;;16.32;37.62;101997.00;4416131;32;20011;-70
2022/03/22 02:28:42;;;;;;;;;;;;;;;16.28;37.80;101997.09;4416959;32;20385;-70
2022/03/22 02:31:07;;;;;;;;;;;;;;;16.31;38.07;101995.41;4417013;32;20023;-70
2022/03/22 02:33:33;;;;;;;;;;;;;;;16.17;38.06;102002.25;4416114;32;20315;-70
2022/03/22 02:35:59;;;;;;;;;;;;;;;16.29;37.99;101998.69;4414929;32;20407;-70
2022/03/22 02:38:24;;;;;;;;;;;;;;;16.37;37.77;101996.44;4414336;32;20001;-70
2022/03/22 02:40:50;;;;;;;;;;;;;;;16.27;38.12;101989.84;4415557;32;20331;-70
2022/03/22 02:43:17;;;;;;;;;;;;;;;16.15;38.12;101992.59;4418191;32;19998;-70
2022/03/22 02:45:43;;;;;;;;;;;;;;;16.22;38.43;101990.38;4414357;32;20554;-70
2022/03/22 02:48:10;;;;;;;;;;;;;;;16.26;38.26;101988.22;4415921;32;20003;-70
2022/03/22 02:50:36;;;;;;;;;;;;;;;16.24;38.24;101989.91;4413340;32;20426;-70
2022/03/22 02:53:02;;;;;;;;;;;;;;;16.09;38.27;101989.50;4416804;32;20041;-70
2022/03/22 02:55:28;;;;;;;;;;;;;;;16.19;38.24;101990.44;4414303;32;20009;-70
2022/03/22 02:57:53;;;;;;;;;;;;;;;16.18;38.40;101986.03;4413196;32;19953;-70
2022/03/22 03:00:20;;;;;;;;;;;;;;;16.22;38.04;101990.38;4413841;32;20015;-70
2022/03/22 03:02:48;;;;;;;;;;;;;;;16.20;38.59;101992.06;4416237;32;20008;-70
2022/03/22 03:05:14;;;;;;;;;;;;;;;16.24;38.43;101989.91;4412228;32;19998;-70
2022/03/22 03:07:40;;;;;;;;;;;;;;;16.12;38.43;101984.97;4416616;32;20314;-70
2022/03/22 03:10:07;;;;;;;;;;;;;;;16.09;38.64;101988.72;4415782;32;19958;-70
2022/03/22 03:12:34;;;;;;;;;;;;;;;16.14;38.76;101980.44;4416099;32;20415;-70
2022/03/22 03:15:00;;;;;;;;;;;;;;;16.11;38.70;101983.38;4413746;32;19973;-70
2022/03/22 03:17:25;;;;;;;;;;;;;;;16.02;38.66;101990.50;4414919;32;19981;-70
2022/03/22 03:19:51;;;;;;;;;;;;;;;16.10;38.51;101981.81;4413968;32;20073;-70
2022/03/22 03:22:18;;;;;;;;;;;;;;;16.06;38.84;101983.91;4415067;32;19992;-70
2022/03/22 03:24:44;;;;;;;;;;;;;;;16.02;38.92;101987.66;4413447;32;19971;-70
2022/03/22 03:27:09;;;;;;;;;;;;;;;15.89;39.25;101988.81;4414014;32;20011;-70
2022/03/22 03:29:35;;;;;;;;;;;;;;;15.92;39.18;101977.38;4412105;32;20406;-70
2022/03/22 03:32:00;;;;;;;;;;;;;;;15.84;39.33;101980.84;4415250;32;19949;-70
2022/03/22 03:34:26;;;;;;;;;;;;;;;15.80;39.58;101985.81;4416074;32;20320;-70
2022/03/22 03:36:51;;;;;;;;;;;;;;;15.60;39.88;101983.09;4413196;32;19994;-70
2022/03/22 03:39:17;;;;;;;;;;;;;;;15.67;39.76;101987.78;4412187;32;20020;-70
2022/03/22 03:41:58;;;;;;;;;;;;;;;15.55;39.82;101985.63;4412749;32;19996;-70
2022/03/22 03:47:11;;;;;;;;;;;;;;;15.48;40.20;101983.78;4413565;32;19969;-70
2022/03/22 03:49:40;;;;;;;;;;;;;;;15.50;40.38;101983.34;4411727;32;20032;-70
2022/03/22 03:52:07;;;;;;;;;;;;;;;15.44;40.35;101985.13;4412807;32;19961;-70
2022/03/22 03:54:33;;;;;;;;;;;;;;;15.37;40.90;101985.28;4413299;32;19993;-70
2022/03/22 03:56:59;;;;;;;;;;;;;;;15.24;41.29;101975.81;4415990;32;20016;-70
2022/03/22 03:59:24;;;;;;;;;;;;;;;15.24;41.24;101985.16;4412891;32;20292;-70
2022/03/22 04:01:50;;;;;;;;;;;;;;;15.17;41.25;101984.50;4412290;32;21635;-70
2022/03/22 04:04:16;;;;;;;;;;;;;;;15.31;41.04;101984.97;4412931;32;20311;-70
2022/03/22 04:06:42;;;;;;;;;;;;;;;15.38;41.00;101986.88;4412923;32;19950;-70
2022/03/22 04:09:07;;;;;;;;;;;;;;;15.32;40.97;101977.28;4413218;32;20379;-70
2022/03/22 04:11:33;;;;;;;;;;;;;;;15.28;41.04;101982.25;4416854;32;20016;-70
2022/03/22 04:13:59;;;;;;;;;;;;;;;15.18;41.32;101978.41;4414568;32;20295;-70
2022/03/22 04:16:25;;;;;;;;;;;;;;;15.22;40.90;101978.31;4412602;32;20379;-70
2022/03/22 04:18:50;;;;;;;;;;;;;;;15.37;40.89;101976.78;4413403;32;19961;-70
2022/03/22 04:21:16;;;;;;;;;;;;;;;15.42;40.57;101976.25;4413559;32;20003;-70
2022/03/22 04:23:42;;;;;;;;;;;;;;;15.51;40.52;101987.78;4415921;32;20016;-70
2022/03/22 04:26:08;;;;;;;;;;;;;;;15.54;40.52;101995.41;4413119;32;19989;-70
2022/03/22 04:34:05;;;;;;;;;;;;;;;15.76;40.20;101994.44;4417660;32;19987;-70
2022/03/22 04:36:31;;;;;;;;;;;;;;;15.88;40.21;101993.72;4411428;32;19953;-70
2022/03/22 04:38:56;;;;;;;;;;;;;;;15.85;39.99;101999.47;4412397;32;19965;-70
2022/03/22 04:41:23;;;;;;;;;;;;;;;15.82;40.13;101997.53;4412687;32;20367;-70
2022/03/22 04:43:50;;;;;;;;;;;;;;;15.84;40.01;102001.50;4415317;32;20034;-70
2022/03/22 04:46:18;;;;;;;;;;;;;;;15.81;40.17;102004.44;4415328;32;19989;-70
2022/03/22 04:48:45;;;;;;;;;;;;;;;15.91;39.88;102007.03;4413910;32;19989;-70
2022/03/22 04:56:43;;;;;;;;;;;;;;;15.95;39.66;102004.06;4411725;32;19981;-70
2022/03/22 04:59:09;;;;;;;;;;;;;;;16.02;39.75;102011.62;4414259;32;19989;-70
2022/03/22 05:01:35;;;;;;;;;;;;;;;16.06;39.79;102007.44;4414278;32;20314;-70
2022/03/22 05:04:00;;;;;;;;;;;;;;;15.98;39.84;102013.75;4413442;32;19976;-70
2022/03/22 05:06:26;;;;;;;;;;;;;;;15.90;40.10;102013.91;4412746;32;19999;-70
2022/03/22 05:08:54;;;;;;;;;;;;;;;16.01;39.97;102010.03;4416076;32;20000;-70
2022/03/22 05:11:21;;;;;;;;;;;;;;;15.89;40.26;102018.00;4416877;32;19946;-70
2022/03/22 05:13:46;;;;;;;;;;;;;;;16.01;39.98;102013.66;4414527;32;19977;-70
2022/03/22 05:16:12;;;;;;;;;;;;;;;15.95;39.92;102018.28;4411948;32;20268;-70
2022/03/22 05:18:38;;;;;;;;;;;;;;;15.91;40.09;102021.22;4413556;32;19984;-70
2022/03/22 05:21:04;;;;;;;;;;;;;;;16.03;39.83;102025.38;4411608;32;20031;-70
2022/03/22 05:23:31;;;;;;;;;;;;;;;15.97;40.03;102012.97;4413624;32;19961;-70
2022/03/22 05:25:56;;;;;;;;;;;;;;;15.89;39.81;102025.72;4417188;32;20027;-70
2022/03/22 05:28:22;;;;;;;;;;;;;;;15.95;39.98;102026.78;4411052;32;19998;-70
2022/03/22 05:30:47;;;;;;;;;;;;;;;15.90;39.76;102021.66;4413528;32;20270;-70
2022/03/22 05:33:13;;;;;;;;;;;;;;;15.96;39.86;102025.56;4416163;32;19989;-70
2022/03/22 05:35:39;;;;;;;;;;;;;;;15.95;39.99;102021.09;4417635;32;20375;-70
2022/03/22 05:38:04;;;;;;;;;;;;;;;15.89;40.20;102028.56;4415527;32;19989;-70
2022/03/22 05:40:31;;;;;;;;;;;;;;;15.80;40.43;102023.53;4415246;32;19954;-70
2022/03/22 05:42:58;;;;;;;;;;;;;;;15.75;40.27;102023.25;4416863;32;19961;-70
2022/03/22 05:45:26;;;;;;;;;;;;;;;15.78;40.41;102028.06;4418411;32;19964;-70
2022/03/22 05:47:53;;;;;;;;;;;;;;;15.71;40.68;102022.56;4414494;32;20009;-70
2022/03/22 05:50:19;;;;;;;;;;;;;;;15.62;40.78;102028.81;4417241;32;20286;-70
2022/03/22 05:52:47;;;;;;;;;;;;;;;15.41;41.14;102034.22;4418405;32;20638;-70
2022/03/22 05:55:13;;;;;;;;;;;;;;;15.40;41.72;102035.47;4420628;32;20299;-70
2022/03/22 05:57:39;;;;;;;;;;;;;;;15.38;41.32;102035.09;4416593;32;20016;-70
2022/03/22 06:00:06;;;;;;;;;;;;;;;15.27;41.52;102043.03;4416186;32;20361;-70
2022/03/22 06:02:31;;;;;;;;;;;;;;;15.24;41.61;102049.56;4416112;32;20000;-70
2022/03/22 06:04:57;;;;;;;;;;;;;;;15.19;41.60;102039.53;4412434;32;19965;-70
2022/03/22 06:07:22;;;;;;;;;;;;;;;15.11;41.76;102048.66;4414880;32;19967;-70
2022/03/22 06:09:48;;;;;;;;;;;;;;;15.11;41.72;102051.50;4415148;32;20044;-70
2022/03/22 06:12:14;;;;;;;;;;;;;;;15.03;41.93;102059.34;4416144;32;19993;-70
2022/03/22 06:14:40;;;;;;;;;;;;;;;15.02;42.04;102056.94;4419760;32;19983;-70
2022/03/22 06:17:06;;;;;;;;;;;;;;;15.12;41.88;102064.41;4414433;32;19981;-70
2022/03/22 06:19:32;;;;;;;;;;;;;;;15.08;41.72;102063.69;4417714;32;19972;-70
2022/03/22 06:21:58;;;;;;;;;;;;;;;15.09;41.84;102054.75;4416980;32;19988;-70
2022/03/22 06:24:24;;;;;;;;;;;;;;;15.05;41.96;102062.56;4413294;32;19989;-70
2022/03/22 06:26:49;;;;;;;;;;;;;;;14.88;42.19;102065.75;4423486;32;20573;-70
2022/03/22 06:29:15;;;;;;;;;;;;;;;14.95;42.16;102059.94;4416256;32;19970;-70
2022/03/22 06:31:41;;;;;;;;;;;;;;;14.95;42.09;102063.59;4408838;32;19995;-70
2022/03/22 06:34:06;;;;;;;;;;;;;;;14.97;42.02;102063.94;4416654;32;20000;-70
2022/03/22 06:36:32;;;;;;;;;;;;;;;14.89;41.77;102056.81;4415182;32;19961;-69
2022/03/22 06:38:58;;;;;;;;;;;;;;;15.00;41.70;102062.28;4417060;32;20088;-69
2022/03/22 06:41:23;;;;;;;;;;;;;;;14.84;42.08;102063.00;4417281;32;20472;-69
2022/03/22 06:43:49;;;;;;;;;;;;;;;14.93;41.80;102060.37;4417691;32;20414;-69
2022/03/22 06:46:15;;;;;;;;;;;;;;;14.99;41.60;102066.31;4414951;32;19963;-69
2022/03/22 06:48:40;;;;;;;;;;;;;;;15.03;41.92;102064.22;4417528;32;19989;-71
2022/03/22 06:51:05;;;;;;;;;;;;;;;14.98;42.22;102071.22;4414121;32;19949;-69
2022/03/22 06:53:31;;;;;;;;;;;;;;;14.93;41.97;102070.91;4414762;32;19950;-70
2022/03/22 06:55:57;;;;;;;;;;;;;;;15.21;41.55;102075.97;4408438;32;20019;-70
2022/03/22 06:58:24;;;;;;;;;;;;;;;15.21;41.63;102075.97;4414972;32;19958;-69
2022/03/22 07:00:51;;;;;;;;;;;;;;;15.22;41.47;102074.75;4415158;32;19957;-69
2022/03/22 07:03:17;;;;;;;;;;;;;;;15.25;41.45;102079.56;4416684;32;20366;-69
2022/03/22 07:05:45;;;;;;;;;;;;;;;15.30;41.26;102079.81;4414726;32;20337;-70
2022/03/22 07:08:12;;;;;;;;;;;;;;;15.37;41.16;102071.19;4416653;32;19965;-70
2022/03/22 07:10:38;;;;;;;;;;;;;;;15.46;40.93;102076.25;4417003;32;19964;-70
2022/03/22 07:13:05;;;;;;;;;;;;;;;15.39;40.42;102073.56;4416219;32;19993;-70
2022/03/22 07:15:33;;;;;;;;;;;;;;;15.44;41.40;102075.91;4414930;32;20238;-70
2022/03/22 07:18:00;;;;;;;;;;;;;;;15.55;41.25;102076.44;4416550;32;20012;-70
2022/03/22 07:20:26;;;;;;;;;;;;;;;15.67;40.73;102087.09;4413613;32;20346;-70
2022/03/22 07:22:52;;;;;;;;;;;;;;;15.85;39.93;102079.78;4418894;32;19993;-70
2022/03/22 07:25:18;;;;;;;;;;;;;;;16.06;40.38;102086.16;4414168;32;19960;-70
2022/03/22 07:27:43;;;;;;;;;;;;;;;16.18;39.77;102089.09;4413804;32;20476;-70
2022/03/22 07:30:10;;;;;;;;;;;;;;;16.42;39.15;102090.50;4412871;32;20017;-70
2022/03/22 07:32:36;;;;;;;;;;;;;;;16.62;39.20;102091.19;4408579;32;20021;-70
2022/03/22 07:35:02;;;;;;;;;;;;;;;16.83;38.36;102084.91;4412527;32;19988;-70
2022/03/22 07:37:29;;;;;;;;;;;;;;;17.07;38.42;102083.38;4410258;32;20671;-70
2022/03/22 07:39:56;;;;;;;;;;;;;;;17.22;37.79;102084.56;4411040;32;20012;-70
2022/03/22 07:42:24;;;;;;;;;;;;;;;17.28;37.83;102082.72;4409750;32;20014;-70
2022/03/22 07:44:50;;;;;;;;;;;;;;;17.51;36.90;102088.16;4411613;32;20074;-70
2022/03/22 07:47:15;;;;;;;;;;;;;;;17.77;36.27;102083.28;4409305;32;19993;-70
2022/03/22 07:52:58;;;;;;;;;;;;;;;18.22;35.95;102092.31;4413225;32;19969;-70
2022/03/22 07:55:12;;;;;;;;;;;;;;;18.64;35.44;102093.72;4412430;32;20026;-71
2022/03/22 07:57:38;;;;;;;;;;;;;;;18.92;34.67;102100.44;4409918;32;20599;-71
2022/03/22 08:00:04;;;;;;;;;;;;;;;19.13;34.34;102097.59;4410114;32;20952;-71
2022/03/22 08:02:29;;;;;;;;;;;;;;;19.56;33.47;102102.47;4399963;32;20043;-71
2022/03/22 08:04:56;;;;;;;;;;;;;;;19.85;33.05;102105.00;4409818;32;19953;-71
2022/03/22 08:07:22;;;;;;;;;;;;;;;20.15;32.83;102109.91;4403532;32;20031;-71
2022/03/22 08:09:48;;;;;;;;;;;;;;;20.52;32.26;102103.00;4404185;32;20024;-71
2022/03/22 08:12:13;;;;;;;;;;;;;;;20.66;31.61;102108.09;4412452;32;20009;-71
2022/03/22 08:14:39;;;;;;;;;;;;;;;20.99;31.62;102109.06;4413998;32;20388;-71
2022/03/22 08:17:05;;;;;;;;;;;;;;;20.56;31.80;102110.12;4412929;32;19999;-73
2022/03/22 08:19:31;;;;;;;;;;;;;;;20.50;31.46;102102.66;4411414;32;20448;-72
2022/03/22 08:21:56;;;;;;;;;;;;;;;20.26;32.19;102102.47;4412461;32;20564;-72
2022/03/22 08:24:22;;;;;;;;;;;;;;;20.49;31.92;102101.84;4409273;32;20008;-72
2022/03/22 08:26:48;;;;;;;;;;;;;;;20.01;32.15;102104.75;4409568;32;19967;-73
2022/03/22 08:29:15;;;;;;;;;;;;;;;20.38;31.90;102109.31;4411953;32;20338;-73
2022/03/22 08:31:40;;;;;;;;;;;;;;;20.28;32.31;102105.63;4409773;32;19957;-74
2022/03/22 08:34:06;;;;;;;;;;;;;;;20.16;32.62;102111.50;4408597;32;20186;-73
2022/03/22 08:36:33;;;;;;;;;;;;;;;20.37;32.12;102107.75;4408369;32;20004;-73
2022/03/22 08:38:59;;;;;;;;;;;;;;;20.29;31.81;102112.97;4411111;32;20670;-72
2022/03/22 08:41:25;;;;;;;;;;;;;;;20.35;31.90;102116.78;4406950;32;20047;-73
2022/03/22 08:43:52;;;;;;;;;;;;;;;20.15;32.17;102122.13;4415021;32;19965;-73
2022/03/22 08:46:20;;;;;;;;;;;;;;;20.38;32.24;102112.19;4407635;32;19983;-73
2022/03/22 08:48:46;;;;;;;;;;;;;;;20.48;31.89;102128.87;4413490;32;19994;-71
2022/03/22 08:51:13;;;;;;;;;;;;;;;20.88;31.40;102120.97;4413641;32;20000;-73
2022/03/22 08:53:38;;;;;;;;;;;;;;;20.49;31.61;102121.87;4413129;32;20411;-73
2022/03/22 08:56:05;;;;;;;;;;;;;;;20.86;31.36;102129.22;4415358;32;19987;-72
2022/03/22 08:58:31;;;;;;;;;;;;;;;21.09;30.92;102120.03;4418440;32;19958;-72
2022/03/22 09:00:56;;;;;;;;;;;;;;;21.34;30.67;102121.75;4415578;32;19998;-72
2022/03/22 09:03:24;;;;;;;;;;;;;;;21.61;29.64;102119.62;4414380;32;19993;-72
2022/03/22 09:06:07;;;;;;;;;;;;;;;21.87;29.36;102124.97;4419651;32;20048;-72
2022/03/22 09:08:33;;;;;;;;;;;;;;;21.98;28.79;102122.34;4413262;32;20001;-72
2022/03/22 09:10:58;;;;;;;;;;;;;;;21.74;29.12;102125.16;4418188;32;20250;-72
2022/03/22 09:13:28;;;;;;;;;;;;;;;22.07;28.72;102130.91;4419912;32;20379;-73
2022/03/22 09:15:54;;;;;;;;;;;;;;;22.19;28.63;102130.72;4415400;32;19992;-71
2022/03/22 09:18:21;;;;;;;;;;;;;;;22.40;28.46;102135.34;4416728;32;19961;-72
2022/03/22 09:20:46;;;;;;;;;;;;;;;22.32;28.77;102130.47;4413732;32;19985;-71
2022/03/22 09:23:12;;;;;;;;;;;;;;;22.57;28.38;102135.75;4417802;32;20455;-72
2022/03/22 09:25:38;;;;;;;;;;;;;;;22.81;28.07;102133.66;4415523;32;20001;-72
2022/03/22 09:28:05;;;;;;;;;;;;;;;23.01;27.89;102137.47;4416794;32;19975;-72
2022/03/22 09:30:32;;;;;;;;;;;;;;;23.12;27.80;102129.09;4414368;32;19973;-72
2022/03/22 09:32:58;;;;;;;;;;;;;;;23.42;27.22;102138.56;4417211;32;19985;-72
2022/03/22 09:35:23;;;;;;;;;;;;;;;23.59;27.13;102136.78;4415778;32;20438;-72
2022/03/22 09:37:49;;;;;;;;;;;;;;;23.42;27.10;102135.69;4414100;32;20031;-72
2022/03/22 09:40:17;;;;;;;;;;;;;;;23.64;26.67;102138.16;4413941;32;20001;-72
2022/03/22 09:42:42;;;;;;;;;;;;;;;23.96;26.51;102137.19;4416326;32;19958;-72
2022/03/22 09:45:09;;;;;;;;;;;;;;;23.62;26.62;102127.16;4417692;32;20017;-72
2022/03/22 09:47:35;;;;;;;;;;;;;;;24.15;26.12;102132.78;4415619;32;20337;-72
2022/03/22 09:50:01;;;;;;;;;;;;;;;23.52;26.74;102129.34;4416405;32;20000;-73
2022/03/22 09:52:27;;;;;;;;;;;;;;;23.93;26.53;102126.66;4416645;32;20050;-72
2022/03/22 09:54:53;;;;;;;;;;;;;;;24.15;26.27;102129.91;4409313;32;20009;-72
2022/03/22 09:57:18;;;;;;;;;;;;;;;24.41;25.90;102125.84;4414097;32;20026;-72
2022/03/22 09:59:44;;;;;;;;;;;;;;;24.61;25.41;102125.84;4416079;32;19973;-71
2022/03/22 10:02:10;;;;;;;;;;;;;;;24.41;25.67;102127.91;4415553;32;20048;-71
2022/03/22 10:04:39;;;;;;;;;;;;;;;24.82;25.28;102129.56;4415962;32;19997;-71
2022/03/22 10:07:06;;;;;;;;;;;;;;;24.91;24.96;102127.31;4412212;32;20360;-71
2022/03/22 10:09:36;;;;;;;;;;;;;;;24.42;25.77;102130.28;4414045;32;19953;-72
2022/03/22 10:12:01;;;;;;;;;;;;;;;25.09;24.98;102127.00;4411282;32;20462;-72
2022/03/22 10:14:36;;;;;;;;;;;;;;;25.20;24.84;102127.12;4416872;32;19985;-71
2022/03/22 10:17:18;;;;;;;;;;;;;;;25.12;24.93;102131.75;4414929;32;19956;-71
2022/03/22 10:19:45;;;;;;;;;;;;;;;24.57;25.67;102130.22;4409398;32;20028;-72
2022/03/22 10:22:11;;;;;;;;;;;;;;;25.21;25.05;102127.91;4413084;32;19998;-72
2022/03/22 10:24:41;;;;;;;;;;;;;;;25.56;24.58;102124.87;4416102;32;19999;-72
2022/03/22 10:27:17;;;;;;;;;;;;;;;25.67;24.83;102125.00;4413627;32;20282;-72
2022/03/22 10:29:44;;;;;;;;;;;;;;;25.47;25.02;102125.88;4413912;32;20076;-72
2022/03/22 10:32:10;;;;;;;;;;;;;;;25.72;24.75;102130.00;4418222;32;20004;-72
2022/03/22 10:34:36;;;;;;;;;;;;;;;26.34;24.08;102133.66;4412256;32;19957;-72
2022/03/22 10:37:02;;;;;;;;;;;;;;;26.39;24.03;102130.03;4414807;32;19962;-72
2022/03/22 10:39:34;;;;;;;;;;;;;;;26.68;23.62;102128.87;4413719;32;19965;-72
2022/03/22 10:42:04;;;;;;;;;;;;;;;26.98;23.45;102130.88;4411211;32;21120;-71
2022/03/22 10:44:33;;;;;;;;;;;;;;;27.59;22.99;102136.00;4415227;32;20024;-72
2022/03/22 10:47:02;;;;;;;;;;;;;;;28.09;22.61;102126.03;4415416;32;19996;-72
2022/03/22 10:49:29;;;;;;;;;;;;;;;28.85;21.92;102129.25;4406497;32;20445;-72
2022/03/22 10:51:56;;;;;;;;;;;;;;;28.15;22.38;102137.59;4415099;32;19957;-72
2022/03/22 10:54:22;;;;;;;;;;;;;;;28.52;22.22;102123.59;4414606;32;20032;-72
2022/03/22 10:56:49;;;;;;;;;;;;;;;28.34;22.42;102122.03;4413100;32;19985;-72
2022/03/22 10:59:16;;;;;;;;;;;;;;;28.50;22.74;102120.44;4412305;32;20030;-72
2022/03/22 11:01:43;;;;;;;;;;;;;;;28.80;22.62;102130.88;4413467;32;20012;-72
2022/03/22 11:04:08;;;;;;;;;;;;;;;28.95;22.25;102136.31;4409484;32;19971;-72
2022/03/22 11:06:37;;;;;;;;;;;;;;;29.25;21.87;102130.66;4410232;32;20344;-74
2022/03/22 11:09:03;;;;;;;;;;;;;;;29.45;21.96;102124.47;4411360;32;19965;-73
2022/03/22 11:11:31;;;;;;;;;;;;;;;29.30;22.10;102124.03;4404818;32;20126;-73
2022/03/22 11:13:57;;;;;;;;;;;;;;;29.07;22.25;102129.19;4413913;32;19988;-73
2022/03/22 11:16:26;;;;;;;;;;;;;;;29.82;21.64;102125.50;4413001;32;19993;-73
2022/03/22 11:18:52;;;;;;;;;;;;;;;29.68;21.83;102125.91;4414926;32;19957;-74
2022/03/22 11:21:19;;;;;;;;;;;;;;;30.07;21.54;102127.12;4414795;32;20726;-72
2022/03/22 11:23:47;;;;;;;;;;;;;;;30.24;21.20;102127.78;4414755;32;20004;-72
2022/03/22 11:28:49;;;;;;;;;;;;;;;31.96;20.13;102129.13;3945095;32;15768410;-73
2022/03/22 11:31:16;;;;;;;;;;;;;;;31.96;20.13;102129.13;4422831;32;19965;-70
2022/03/22 11:34:15;;;;;;;;;;;;;;;31.69;20.08;102124.56;4422492;32;20013;-72
2022/03/22 11:36:36;;;;;;;;;;;;;;;31.99;19.61;102117.19;4423343;32;20044;-73
2022/03/22 11:39:03;;;;;;;;;;;;;;;30.64;20.84;102114.38;4420387;32;20008;-73
2022/03/22 11:44:10;;;;;;;;;;;;;;;32.11;20.14;102117.75;3947624;32;15724818;-72
2022/03/22 11:46:35;;;;;;;;;;;;;;;32.11;20.14;102117.75;4421612;32;19957;-71
2022/03/22 11:49:17;;;;;;;;;;;;;;;32.43;19.69;102109.75;4423958;32;19991;-71
2022/03/22 11:51:51;;;;;;;;;;;;;;;32.53;19.74;102114.59;4421926;32;19969;-71
2022/03/22 11:54:17;;;;;;;;;;;;;;;32.94;19.26;102104.47;4424833;32;20001;-73
2022/03/22 11:56:46;;;;;;;;;;;;;;;32.61;19.75;102109.62;4424030;32;20020;-73
2022/03/22 11:59:14;;;;;;;;;;;;;;;32.74;19.68;102102.22;4420377;32;20028;-73
2022/03/22 12:01:40;;;;;;;;;;;;;;;32.48;19.93;102100.91;4421698;32;20032;-73
2022/03/22 12:04:14;;;;;;;;;;;;;;;32.70;19.80;102104.69;4421744;32;20469;-73
2022/03/22 12:06:39;;;;;;;;;;;;;;;33.14;19.36;102101.63;4420249;32;19949;-73
2022/03/22 12:09:06;;;;;;;;;;;;;;;33.02;19.43;102099.50;4419100;32;20036;-73
2022/03/22 12:11:32;;;;;;;;;;;;;;;33.36;19.21;102097.38;4419762;32;20008;-72
2022/03/22 12:13:58;;;;;;;;;;;;;;;33.74;19.02;102098.56;4424651;32;20339;-71
2022/03/22 12:16:26;;;;;;;;;;;;;;;34.05;18.75;102101.22;4423432;32;20325;-72
2022/03/22 12:18:51;;;;;;;;;;;;;;;33.66;18.92;102092.69;4421638;32;20383;-72
2022/03/22 12:21:18;;;;;;;;;;;;;;;33.39;19.30;102091.22;4418686;32;20182;-72
2022/03/22 12:23:44;;;;;;;;;;;;;;;33.26;19.43;102093.38;4421367;32;20064;-72
2022/03/22 12:26:10;;;;;;;;;;;;;;;33.75;19.07;102085.53;4422494;32;20052;-72
2022/03/22 12:28:46;;;;;;;;;;;;;;;33.92;18.93;102092.53;4423090;32;19997;-72
2022/03/22 12:31:12;;;;;;;;;;;;;;;33.67;19.20;102084.69;4417907;32;20002;-73
2022/03/22 12:33:38;;;;;;;;;;;;;;;33.76;19.23;102084.19;4422369;32;20004;-73
2022/03/22 12:36:04;;;;;;;;;;;;;;;34.12;18.87;102076.34;4421716;32;20035;-73
2022/03/22 12:38:31;;;;;;;;;;;;;;;34.34;18.62;102078.63;4409944;32;19976;-73
2022/03/22 12:40:57;;;;;;;;;;;;;;;34.63;18.44;102071.41;4421584;32;19957;-73
2022/03/22 12:43:23;;;;;;;;;;;;;;;34.38;18.67;102071.09;4420012;32;20113;-73
2022/03/22 12:45:49;;;;;;;;;;;;;;;34.61;18.55;102064.59;4421308;32;20423;-72
2022/03/22 12:48:16;;;;;;;;;;;;;;;34.12;18.77;102055.88;4404708;32;20041;-73
2022/03/22 12:50:42;;;;;;;;;;;;;;;34.98;18.07;102050.16;4419144;32;20428;-73
2022/03/22 12:53:07;;;;;;;;;;;;;;;34.99;17.97;102050.91;4420871;32;20001;-73
2022/03/22 12:55:33;;;;;;;;;;;;;;;34.94;18.08;102046.81;4398788;32;20335;-73
2022/03/22 12:58:01;;;;;;;;;;;;;;;35.60;17.29;102047.56;4415236;32;19969;-71